Alfred, North Dakota
Current Conditions -  °F | °C
As of 4:56 PM on Sunday 23 Nov 2014 (Local Time) from KJMS Reporting Station
Overcast Overcast  
Wind Chill:   Ceiling: 1500
Heat Index: 20°   Visibility: 10mi
Dew Point: 13°   Wind: 28mph
Humidity: 74%   Direction: 320°NW
Pressure: 29.55"   Gusts: 39mph
Location:  46.4882°N, 98.8135°W
Report Text: KJMS 232256Z AUTO 32024G34KT 10SM OVC015 M07/M11 A2955 RMK AO2 PK WND 32035/2236 UPB10E20 SLP023 P0000 T10671106
Loading
Personal Weather Stations






























Interactive Weather Map New forecast layout! Learn more

10-Day Weather Forecast

Advertisements
Track Severe Weather on mobile